Birmingham, AL (35201)

3:09 PM CDT on July 29, 2015 (GMT -0500)
UAB HHB | | Change Station
CLOSE
Current Station
Personal Weather Station
Location: Birmingham, AL
Elevation: 617 ft
Nearby Weather Stations

Elev 617 ft 33.50 °N, 86.81 °W | Updated 29 seconds ago

Thunderstorm
Thunderstorm
74.0 °F
Feels Like 71 °F
N
2.0
Wind Variable Wind from North
Gusts 6.0 mph

Today
High -- | Low -- °F
--% Chance of Precip.
Yesterday
High -- | Low -- °F
Precip. -- in
5:57 AM 7:49 PM
Waxing Gibbous, 96% visible
Pressure 30.01 in
Visibility 7.0 miles
Clouds Scattered Clouds 3100 ft
Mostly Cloudy 4300 ft
Overcast 11000 ft
Heat Index 71 °F
Dew Point 73 °F
Humidity 96%
Rainfall 0.40 in
Snow Depth Not available.
UV 3 out of 12
Pollen 3.00 out of 12
Air Quality Not available.
Flu Activity Not available.
METAR KBHM 291953Z 15004KT 7SM -TSRA SCT031 BKN043CB OVC110 25/23 A3003 RMK AO2 PK WND 01033/1917 SLP160 RAB19 TSB14 OCNL LTGIC SE TS SE MOV S P0017 T02500233

More Conditions Fewer Conditions

Pressure 30.01 in
Visibility 7.0 miles
Clouds Scattered Clouds 3100 ft
Mostly Cloudy 4300 ft
Overcast 11000 ft
Heat Index 71 °F
Dew Point 73 °F
Humidity 96%
Rainfall 0.40 in
Snow Depth Not available.
UV 3 out of 12
Pollen 3.00 out of 12
Air Quality Not available.
Flu Activity Not available.
METAR KBHM 291953Z 15004KT 7SM -TSRA SCT031 BKN043CB OVC110 25/23 A3003 RMK AO2 PK WND 01033/1917 SLP160 RAB19 TSB14 OCNL LTGIC SE TS SE MOV S P0017 T02500233

More Conditions Fewer Conditions

10-Day Weather Forecast

×

Almanac

Astronomy

Jul. 29, 2015 Rise Set
Actual Time
Civil Twilight
Nautical Twilight
Astronomical Twilight
Moon
Length of Visible Light
Length of Day
Tomorrow will be .
, % of the Moon is Illuminated

Today's Extremes

State Highs State Lows

Community

WunderPhotos

Upload Photos

1,842,157 photos uploaded!

WunderBlogs® & News

Nearby

Air Quality

  Air Quality AQ Index Pollutant
Not available.

Snow Depth

Station Depth Elevation

Earthquake Activity

City Distance Mag. Time & Date
Minimum magnitude displayed is 2.5.

Coastal Water Temperatures

Place Temperature

Stations

Nearby Weather Stations

Station Location Temp. Windchill Dew Point Humidity Wind Precip. Elev Updated Type
                   
Severe Thunderstorm Warning
Statement as of 3:00 PM CDT on July 29, 2015

... The Severe Thunderstorm Warning for southeastern Jefferson County
is cancelled...

the severe thunderstorm which prompted the warning has moved out of
the warned area. Therefore the warning has been cancelled.

Lat... Lon 3338 8656 3318 8656 3307 8661 3307 8688
      3306 8691 3310 8697 3316 8697 3317 8703
      3325 8703 3325 8698 3327 8697 3327 8695
      3333 8688 3333 8683 3336 8683 3337 8678
      3342 8675 3342 8672 3343 8672 3345 8667
time... Mot... loc 1959z 019deg 27kt 3328 8681